createdAt,value
2022-08-17T00:02:26.467Z,8.48
2022-08-17T00:04:54.315Z,8.15
2022-08-17T00:07:20.867Z,8.77
2022-08-17T00:09:47.374Z,8.95
2022-08-17T00:12:43.683Z,8.68
2022-08-17T00:15:00.943Z,8.63
2022-08-17T00:17:27.916Z,9.20
2022-08-17T00:19:54.583Z,8.68
2022-08-17T00:22:31.324Z,8.77
2022-08-17T00:25:07.238Z,8.77
2022-08-17T00:27:34.541Z,8.38
2022-08-17T00:30:01.057Z,8.65
2022-08-17T00:33:14.244Z,8.98
2022-08-17T00:35:19.974Z,8.25
2022-08-17T00:37:46.508Z,9.57
2022-08-17T00:40:15.207Z,9.55
2022-08-17T00:42:43.331Z,9.70
2022-08-17T00:45:12.460Z,10.82
2022-08-17T00:47:39.995Z,9.98
2022-08-17T00:50:12.427Z,10.50
2022-08-17T00:52:56.277Z,10.68
2022-08-17T00:55:25.254Z,11.02
2022-08-17T00:57:57.022Z,11.90
2022-08-17T01:00:34.383Z,11.55
2022-08-17T01:03:07.507Z,10.85
2022-08-17T01:05:42.265Z,11.10
2022-08-17T01:08:13.174Z,10.93
2022-08-17T01:10:59.457Z,11.13
2022-08-17T01:13:35.495Z,10.95
2022-08-17T01:16:12.654Z,11.05
2022-08-17T01:18:39.355Z,11.23
2022-08-17T01:21:24.708Z,10.27
2022-08-17T01:23:51.255Z,10.80
2022-08-17T01:26:18.973Z,10.88
2022-08-17T01:28:55.267Z,10.77
2022-08-17T01:31:28.099Z,10.55
2022-08-17T01:33:54.985Z,12.10
2022-08-17T01:36:21.975Z,11.38
2022-08-17T01:38:48.613Z,11.40
2022-08-17T01:41:16.453Z,10.18
2022-08-17T01:43:52.037Z,9.80
2022-08-17T01:46:27.162Z,9.57
2022-08-17T01:48:55.348Z,8.93
2022-08-17T01:51:22.376Z,8.30
2022-08-17T01:53:54.172Z,8.63
2022-08-17T01:56:24.438Z,9.40
2022-08-17T01:58:52.706Z,8.80
2022-08-17T02:01:24.148Z,10.02
2022-08-17T02:03:56.245Z,10.07
2022-08-17T02:06:52.461Z,9.07
2022-08-17T02:09:19.147Z,8.88
2022-08-17T02:11:49.974Z,9.93
2022-08-17T02:14:16.747Z,9.05
2022-08-17T02:16:43.489Z,9.05
2022-08-17T02:19:14.009Z,9.48
2022-08-17T02:21:42.344Z,10.32
2022-08-17T02:24:13.327Z,9.40
2022-08-17T02:26:40.197Z,9.32
2022-08-17T02:29:07.318Z,9.60
2022-08-17T02:31:35.580Z,9.95
2022-08-17T02:34:03.681Z,9.35
2022-08-17T02:36:34.789Z,10.18
2022-08-17T02:39:04.359Z,9.23
2022-08-17T02:41:31.105Z,9.57
2022-08-17T02:43:57.798Z,9.48
2022-08-17T02:46:28.608Z,10.20
2022-08-17T02:48:55.157Z,9.88
2022-08-17T02:51:21.684Z,9.27
2022-08-17T02:53:48.217Z,9.88
2022-08-17T02:56:14.943Z,9.68
2022-08-17T02:58:41.536Z,9.63
2022-08-17T03:01:10.161Z,10.43
2022-08-17T03:03:37.591Z,10.05
2022-08-17T03:06:04.651Z,10.07
2022-08-17T03:08:31.338Z,9.40
2022-08-17T03:10:57.836Z,9.82
2022-08-17T03:13:24.487Z,10.50
2022-08-17T03:15:51.303Z,10.50
2022-08-17T03:18:24.722Z,9.77
2022-08-17T03:20:55.022Z,10.10
2022-08-17T03:23:24.143Z,10.32
2022-08-17T03:25:53.365Z,11.57
2022-08-17T03:28:21.561Z,11.65
2022-08-17T03:30:48.834Z,10.77
2022-08-17T03:33:16.929Z,10.68
2022-08-17T03:35:44.089Z,10.15
2022-08-17T03:38:12.369Z,10.40
2022-08-17T03:40:57.714Z,11.10
2022-08-17T03:43:28.670Z,10.10
2022-08-17T03:46:28.979Z,10.52
2022-08-17T03:49:19.140Z,10.35
2022-08-17T03:52:04.027Z,10.90
2022-08-17T03:54:48.954Z,10.07
2022-08-17T03:57:16.429Z,8.88
2022-08-17T03:59:43.259Z,9.68
2022-08-17T04:02:17.464Z,9.55
2022-08-17T04:04:44.001Z,9.32
2022-08-17T04:07:10.859Z,8.27
2022-08-17T04:09:37.392Z,7.97
2022-08-17T04:12:05.127Z,8.18
2022-08-17T04:14:52.191Z,8.18
2022-08-17T04:17:25.320Z,7.78
2022-08-17T04:19:52.369Z,7.63
2022-08-17T04:22:32.597Z,7.30
2022-08-17T04:25:19.014Z,6.72
2022-08-17T04:27:45.547Z,8.48
2022-08-17T04:30:12.893Z,7.05
2022-08-17T04:33:04.429Z,7.75
2022-08-17T04:35:41.190Z,7.38
2022-08-17T04:40:54.993Z,7.05
2022-08-17T04:43:24.502Z,7.22
2022-08-17T04:46:00.638Z,7.60
2022-08-17T04:48:36.868Z,8.15
2022-08-17T04:51:14.086Z,8.05
2022-08-17T04:53:44.079Z,7.97
2022-08-17T04:56:16.027Z,7.03
2022-08-17T04:58:49.892Z,9.00
2022-08-17T05:01:23.427Z,8.70
2022-08-17T05:03:51.604Z,8.80
2022-08-17T05:06:18.111Z,9.00
2022-08-17T05:08:44.595Z,9.93
2022-08-17T05:11:11.145Z,9.20
2022-08-17T05:13:37.666Z,9.38
2022-08-17T05:16:04.869Z,9.07
2022-08-17T05:18:31.983Z,9.40
2022-08-17T05:21:00.109Z,9.68
2022-08-17T05:23:38.498Z,8.77
2022-08-17T05:26:09.666Z,9.60
2022-08-17T05:28:40.045Z,8.77
2022-08-17T05:31:07.018Z,9.90
2022-08-17T05:33:36.973Z,8.98
2022-08-17T05:36:06.928Z,9.00
2022-08-17T05:38:33.860Z,9.30
2022-08-17T05:41:02.795Z,9.10
2022-08-17T05:43:32.947Z,9.18
2022-08-17T05:46:13.420Z,8.13
2022-08-17T05:48:47.231Z,8.88
2022-08-17T05:51:32.171Z,8.02
2022-08-17T05:54:36.350Z,8.13
2022-08-17T05:57:08.819Z,8.32
2022-08-17T05:59:44.928Z,8.02
2022-08-17T06:02:14.517Z,7.95
2022-08-17T06:04:46.815Z,7.57
2022-08-17T06:07:25.437Z,7.82
2022-08-17T06:10:00.276Z,7.30
2022-08-17T06:12:39.962Z,8.15
2022-08-17T06:15:24.947Z,7.68
2022-08-17T06:20:23.222Z,7.93
2022-08-17T06:22:54.123Z,7.22
2022-08-17T06:25:31.543Z,7.70
2022-08-17T06:28:24.420Z,8.55
2022-08-17T06:31:00.845Z,7.85
2022-08-17T06:33:34.249Z,8.18
2022-08-17T06:36:25.152Z,7.68
2022-08-17T06:39:04.567Z,8.05
2022-08-17T06:41:58.475Z,7.47
2022-08-17T06:44:49.648Z,7.93
2022-08-17T06:47:31.734Z,8.10
2022-08-17T06:50:15.458Z,8.10
2022-08-17T06:52:59.988Z,7.60
2022-08-17T06:58:16.492Z,7.13
2022-08-17T07:00:47.246Z,7.43
2022-08-17T07:03:38.990Z,7.40
2022-08-17T07:06:12.793Z,6.88
2022-08-17T07:09:05.967Z,7.55
2022-08-17T07:11:40.215Z,7.30
2022-08-17T07:14:30.203Z,7.20
2022-08-17T07:16:59.011Z,6.68
2022-08-17T07:19:31.770Z,7.30
2022-08-17T07:22:18.475Z,7.03
2022-08-17T07:25:21.085Z,6.93
2022-08-17T07:27:54.298Z,6.20
2022-08-17T07:30:27.206Z,6.82
2022-08-17T07:33:02.643Z,7.32
2022-08-17T07:35:37.680Z,6.97
2022-08-17T07:38:25.394Z,6.43
2022-08-17T07:40:57.861Z,6.45
2022-08-17T07:43:26.198Z,6.80
2022-08-17T07:46:29.976Z,6.82
2022-08-17T07:49:03.192Z,6.63
2022-08-17T07:51:37.951Z,6.82
2022-08-17T07:54:22.656Z,7.13
2022-08-17T07:57:29.504Z,8.43
2022-08-17T08:00:03.170Z,7.05
2022-08-17T08:02:38.981Z,10.65
2022-08-17T08:05:12.948Z,7.38
2022-08-17T08:07:55.047Z,6.60
2022-08-17T08:10:27.938Z,6.05
2022-08-17T08:13:21.640Z,6.03
2022-08-17T08:16:11.829Z,6.90
2022-08-17T08:18:54.298Z,6.15
2022-08-17T08:21:36.901Z,6.40
2022-08-17T08:24:18.850Z,6.32
2022-08-17T08:26:55.559Z,6.28
2022-08-17T08:30:05.091Z,5.82
2022-08-17T08:32:45.383Z,6.50
2022-08-17T08:35:17.685Z,6.05
2022-08-17T08:37:44.362Z,5.93
2022-08-17T08:40:35.633Z,6.05
2022-08-17T08:43:22.154Z,6.18
2022-08-17T08:46:10.475Z,6.20
2022-08-17T08:48:55.739Z,6.03
2022-08-17T08:51:47.183Z,6.13
2022-08-17T08:54:14.056Z,6.18
2022-08-17T08:57:11.564Z,5.57
2022-08-17T08:59:58.194Z,6.30
2022-08-17T09:02:43.642Z,6.32
2022-08-17T09:05:31.726Z,5.82
2022-08-17T09:08:25.069Z,6.10
2022-08-17T09:10:56.858Z,6.22
2022-08-17T09:13:41.490Z,5.80
2022-08-17T09:16:55.908Z,5.95
2022-08-17T09:19:48.902Z,5.55
2022-08-17T09:22:37.483Z,5.70
2022-08-17T09:25:12.136Z,5.80
2022-08-17T09:28:00.468Z,5.95
2022-08-17T09:30:36.333Z,5.70
2022-08-17T09:33:08.054Z,6.30
2022-08-17T09:35:49.666Z,6.00
2022-08-17T09:38:34.816Z,6.05
2022-08-17T09:41:39.702Z,5.88
2022-08-17T09:44:40.042Z,5.68
2022-08-17T09:47:45.572Z,6.10
2022-08-17T09:51:01.624Z,6.05
2022-08-17T09:53:11.253Z,5.60
2022-08-17T09:56:05.478Z,6.18
2022-08-17T09:58:40.831Z,5.82
2022-08-17T10:01:31.474Z,5.60
2022-08-17T10:04:17.762Z,6.35
2022-08-17T10:06:58.918Z,5.90
2022-08-17T10:09:37.123Z,6.28
2022-08-17T10:12:20.231Z,5.88
2022-08-17T10:15:07.698Z,5.88
2022-08-17T10:18:08.868Z,5.72
2022-08-17T10:21:15.617Z,5.50
2022-08-17T10:24:03.329Z,5.75
2022-08-17T10:26:46.324Z,5.95
2022-08-17T10:29:28.990Z,5.90
2022-08-17T10:32:04.258Z,5.70
2022-08-17T10:34:51.929Z,5.65
2022-08-17T10:37:46.714Z,6.28
2022-08-17T10:40:38.760Z,5.90
2022-08-17T10:43:30.331Z,6.05
2022-08-17T10:46:31.329Z,5.63
2022-08-17T10:49:17.093Z,5.65
2022-08-17T10:51:47.840Z,5.63
2022-08-17T10:54:35.160Z,6.20
2022-08-17T10:57:02.364Z,5.90
2022-08-17T10:59:35.020Z,6.13
2022-08-17T11:02:04.767Z,6.20
2022-08-17T11:04:34.234Z,5.80
2022-08-17T11:07:11.581Z,5.70
2022-08-17T11:09:55.013Z,5.68
2022-08-17T11:12:49.430Z,5.60
2022-08-17T11:15:37.975Z,5.77
2022-08-17T11:18:07.280Z,5.85
2022-08-17T11:20:54.562Z,5.75
2022-08-17T11:23:34.756Z,6.30
2022-08-17T11:26:04.216Z,5.88
2022-08-17T11:28:50.401Z,5.75
2022-08-17T11:31:39.117Z,5.65
2022-08-17T11:34:19.570Z,5.88
2022-08-17T11:37:01.167Z,5.68
2022-08-17T11:39:45.372Z,5.50
2022-08-17T11:42:32.578Z,5.45
2022-08-17T11:45:32.366Z,5.80
2022-08-17T11:48:46.199Z,5.90
2022-08-17T11:51:33.839Z,5.68
2022-08-17T11:54:34.847Z,5.93
2022-08-17T11:57:26.455Z,5.93
2022-08-17T12:00:00.145Z,5.90
2022-08-17T12:02:32.838Z,5.50
2022-08-17T12:05:27.516Z,5.57
2022-08-17T12:07:57.134Z,5.32
2022-08-17T12:10:31.889Z,5.90
2022-08-17T12:13:03.924Z,5.10
2022-08-17T12:15:35.311Z,6.03
2022-08-17T12:18:02.001Z,5.82
2022-08-17T12:20:40.066Z,5.35
2022-08-17T12:23:36.075Z,6.55
2022-08-17T12:26:17.700Z,5.45
2022-08-17T12:28:47.798Z,5.00
2022-08-17T12:31:26.586Z,4.88
2022-08-17T12:33:53.405Z,5.10
2022-08-17T12:36:24.833Z,5.22
2022-08-17T12:39:13.102Z,5.43
2022-08-17T12:41:44.902Z,6.20
2022-08-17T12:44:21.199Z,5.80
2022-08-17T12:47:21.110Z,6.00
2022-08-17T12:49:51.550Z,5.90
2022-08-17T12:52:25.760Z,5.88
2022-08-17T12:55:02.073Z,5.57
2022-08-17T12:57:42.540Z,5.60
2022-08-17T13:00:25.686Z,5.53
2022-08-17T13:03:09.559Z,5.60
2022-08-17T13:05:53.809Z,5.78
2022-08-17T13:08:25.603Z,5.75
2022-08-17T13:11:01.789Z,5.57
2022-08-17T13:13:31.837Z,5.68
2022-08-17T13:16:00.318Z,5.72
2022-08-17T13:18:35.974Z,5.43
2022-08-17T13:21:02.831Z,5.15
2022-08-17T13:23:32.254Z,5.43
2022-08-17T13:26:07.741Z,5.68
2022-08-17T13:28:37.575Z,5.65
2022-08-17T13:31:26.308Z,5.45
2022-08-17T13:33:52.987Z,5.55
2022-08-17T13:36:32.086Z,5.35
2022-08-17T13:39:18.917Z,5.68
2022-08-17T13:41:47.876Z,6.43
2022-08-17T13:44:50.019Z,5.97
2022-08-17T13:47:19.930Z,5.88
2022-08-17T13:49:48.886Z,5.38
2022-08-17T13:52:39.244Z,4.88
2022-08-17T13:55:21.265Z,6.03
2022-08-17T13:58:03.682Z,5.93
2022-08-17T14:00:36.545Z,5.93
2022-08-17T14:03:04.822Z,6.00
2022-08-17T14:05:32.506Z,5.43
2022-08-17T14:08:06.560Z,5.47
2022-08-17T14:10:36.266Z,5.35
2022-08-17T14:13:03.386Z,5.50
2022-08-17T14:15:55.816Z,5.55
2022-08-17T14:18:49.821Z,5.47
2022-08-17T14:21:08.741Z,5.80
2022-08-17T14:23:37.077Z,5.72
2022-08-17T14:26:04.718Z,5.80
2022-08-17T14:28:31.223Z,5.47
2022-08-17T14:31:00.800Z,5.25
2022-08-17T14:33:29.052Z,5.50
2022-08-17T14:35:55.914Z,5.00
2022-08-17T14:38:22.427Z,5.60
2022-08-17T14:40:49.314Z,5.55
2022-08-17T14:43:15.977Z,5.97
2022-08-17T14:45:43.163Z,5.30
2022-08-17T14:48:10.558Z,5.65
2022-08-17T14:50:41.157Z,5.28
2022-08-17T14:53:11.128Z,5.53
2022-08-17T14:55:40.414Z,5.57
2022-08-17T14:58:07.555Z,5.22
2022-08-17T15:00:34.877Z,5.00
2022-08-17T15:03:01.937Z,5.90
2022-08-17T15:05:34.742Z,5.60
2022-08-17T15:08:02.775Z,5.63
2022-08-17T15:10:30.306Z,5.57
2022-08-17T15:12:57.800Z,5.75
2022-08-17T15:15:24.688Z,6.10
2022-08-17T15:17:51.710Z,5.28
2022-08-17T15:20:23.852Z,5.75
2022-08-17T15:22:50.921Z,5.22
2022-08-17T15:25:19.073Z,5.10
2022-08-17T15:27:45.769Z,5.47
2022-08-17T15:30:12.878Z,5.53
2022-08-17T15:32:50.806Z,5.32
2022-08-17T15:35:26.804Z,5.80
2022-08-17T15:37:55.490Z,5.45
2022-08-17T15:40:22.015Z,5.07
2022-08-17T15:42:48.587Z,5.45
2022-08-17T15:45:19.328Z,5.10
2022-08-17T15:47:46.582Z,5.50
2022-08-17T15:50:13.251Z,5.57
2022-08-17T15:52:40.571Z,5.88
2022-08-17T15:55:11.639Z,5.60
2022-08-17T15:57:38.403Z,5.03
2022-08-17T16:00:06.916Z,5.18
2022-08-17T16:03:15.019Z,5.72
2022-08-17T16:05:27.331Z,5.65
2022-08-17T16:07:55.775Z,5.53
2022-08-17T16:10:23.314Z,5.80
2022-08-17T16:13:02.377Z,5.38
2022-08-17T16:15:31.215Z,5.90
2022-08-17T16:17:57.755Z,5.55
2022-08-17T16:20:25.995Z,4.93
2022-08-17T16:22:52.710Z,5.95
2022-08-17T16:25:52.344Z,5.70
2022-08-17T16:28:15.133Z,5.70
2022-08-17T16:30:41.830Z,5.60
2022-08-17T16:33:11.578Z,5.97
2022-08-17T16:35:38.731Z,5.45
2022-08-17T16:38:05.551Z,5.78
2022-08-17T16:40:35.770Z,5.78
2022-08-17T16:43:02.845Z,5.63
2022-08-17T16:45:39.920Z,5.45
2022-08-17T16:48:07.896Z,5.35
2022-08-17T16:50:34.495Z,6.20
2022-08-17T16:53:10.335Z,6.70
2022-08-17T16:55:36.979Z,6.70
2022-08-17T16:58:08.784Z,6.15
2022-08-17T17:00:36.258Z,5.90
2022-08-17T17:03:19.817Z,6.20
2022-08-17T17:06:22.460Z,5.70
2022-08-17T17:09:13.367Z,5.93
2022-08-17T17:11:50.912Z,6.55
2022-08-17T17:14:25.534Z,6.25
2022-08-17T17:17:13.482Z,6.05
2022-08-17T17:20:18.136Z,6.50
2022-08-17T17:22:48.223Z,6.28
2022-08-17T17:25:26.721Z,6.05
2022-08-17T17:28:04.611Z,5.43
2022-08-17T17:30:40.234Z,6.05
2022-08-17T17:33:17.773Z,6.13
2022-08-17T17:35:47.782Z,5.80
2022-08-17T17:38:23.124Z,5.85
2022-08-17T17:41:03.150Z,5.88
2022-08-17T17:43:40.499Z,6.20
2022-08-17T17:46:29.281Z,5.82
2022-08-17T17:48:59.574Z,6.00
2022-08-17T17:52:06.681Z,6.47
2022-08-17T17:54:39.167Z,5.83
2022-08-17T17:57:27.204Z,6.07
2022-08-17T18:00:06.930Z,6.22
2022-08-17T18:02:58.169Z,6.40
2022-08-17T18:05:36.819Z,5.90
2022-08-17T18:08:32.375Z,6.32
2022-08-17T18:11:24.074Z,6.53
2022-08-17T18:13:57.492Z,6.60
2022-08-17T18:16:27.425Z,6.65
2022-08-17T18:18:57.687Z,6.75
2022-08-17T18:21:37.967Z,6.90
2022-08-17T18:24:07.870Z,6.95
2022-08-17T18:26:45.092Z,6.28
2022-08-17T18:29:42.737Z,6.97
2022-08-17T18:32:34.553Z,6.70
2022-08-17T18:35:09.802Z,6.70
2022-08-17T18:37:47.634Z,6.75
2022-08-17T18:40:17.066Z,7.18
2022-08-17T18:42:58.303Z,7.10
2022-08-17T18:45:34.084Z,7.07
2022-08-17T18:48:01.834Z,7.35
2022-08-17T18:50:41.331Z,7.43
2022-08-17T18:53:40.819Z,7.53
2022-08-17T18:56:23.033Z,7.95
2022-08-17T18:59:00.589Z,7.63
2022-08-17T19:01:41.919Z,7.60
2022-08-17T19:05:01.487Z,7.43
2022-08-17T19:07:34.591Z,7.95
2022-08-17T19:10:14.903Z,7.65
2022-08-17T19:12:51.672Z,8.00
2022-08-17T19:15:27.188Z,8.20
2022-08-17T19:20:34.843Z,7.88
2022-08-17T19:23:19.849Z,8.52
2022-08-17T19:26:50.701Z,8.43
2022-08-17T19:29:13.533Z,8.35
2022-08-17T19:31:40.784Z,9.25
2022-08-17T19:34:07.327Z,9.13
2022-08-17T19:36:55.241Z,8.68
2022-08-17T19:39:37.952Z,8.68
2022-08-17T19:42:15.116Z,8.63
2022-08-17T19:44:47.689Z,8.50
2022-08-17T19:47:53.390Z,7.70
2022-08-17T19:50:29.294Z,8.38
2022-08-17T19:53:11.892Z,8.80
2022-08-17T19:56:08.343Z,8.55
2022-08-17T20:01:34.849Z,8.52
2022-08-17T20:04:20.838Z,8.20
2022-08-17T20:06:49.560Z,8.57
2022-08-17T20:09:25.076Z,8.48
2022-08-17T20:12:07.721Z,8.50
2022-08-17T20:14:53.904Z,8.38
2022-08-17T20:17:30.445Z,8.38
2022-08-17T20:20:36.080Z,8.93
2022-08-17T20:23:12.391Z,8.48
2022-08-17T20:25:47.628Z,8.52
2022-08-17T20:28:27.879Z,8.60
2022-08-17T20:30:54.812Z,8.15
2022-08-17T20:33:36.701Z,8.38
2022-08-17T20:36:18.150Z,8.65
2022-08-17T20:38:46.248Z,9.23
2022-08-17T20:41:52.964Z,8.77
2022-08-17T20:44:33.129Z,9.52
2022-08-17T20:47:29.123Z,9.13
2022-08-17T20:50:05.128Z,9.32
2022-08-17T20:52:54.295Z,9.13
2022-08-17T20:55:36.340Z,9.43
2022-08-17T20:58:18.596Z,9.48
2022-08-17T21:00:57.456Z,9.80
2022-08-17T21:03:24.131Z,10.38
2022-08-17T21:06:14.413Z,9.90
2022-08-17T21:09:06.282Z,10.15
2022-08-17T21:12:02.867Z,10.02
2022-08-17T21:14:59.657Z,10.00
2022-08-17T21:17:39.453Z,10.20
2022-08-17T21:20:32.560Z,10.02
2022-08-17T21:23:02.702Z,10.48
2022-08-17T21:25:48.902Z,10.15
2022-08-17T21:28:59.917Z,10.60
2022-08-17T21:31:47.534Z,10.85
2022-08-17T21:34:23.664Z,10.32
2022-08-17T21:36:50.831Z,10.68
2022-08-17T21:39:23.282Z,11.15
2022-08-17T21:41:57.556Z,10.25
2022-08-17T21:44:35.104Z,10.18
2022-08-17T21:47:19.517Z,10.63
2022-08-17T21:49:46.382Z,11.32
2022-08-17T21:52:15.795Z,10.73
2022-08-17T21:54:53.235Z,10.40
2022-08-17T21:57:23.924Z,10.57
2022-08-17T21:59:53.448Z,10.45
2022-08-17T22:02:24.049Z,9.88
2022-08-17T22:05:07.141Z,10.30
2022-08-17T22:07:41.543Z,10.68
2022-08-17T22:10:46.291Z,10.32
2022-08-17T22:13:17.123Z,10.10
2022-08-17T22:15:49.740Z,10.50
2022-08-17T22:18:26.903Z,11.00
2022-08-17T22:20:57.939Z,10.20
2022-08-17T22:23:48.390Z,10.52
2022-08-17T22:26:19.801Z,11.00
2022-08-17T22:28:57.220Z,11.05
2022-08-17T22:31:29.833Z,11.23
2022-08-17T22:34:02.218Z,11.52
2022-08-17T22:36:30.836Z,10.60
2022-08-17T22:39:00.153Z,11.30
2022-08-17T22:41:40.438Z,11.10
2022-08-17T22:44:15.388Z,10.57
2022-08-17T22:46:59.990Z,10.63
2022-08-17T22:49:54.068Z,10.93
2022-08-17T22:52:58.862Z,10.65
2022-08-17T22:55:45.697Z,11.25
2022-08-17T22:58:35.202Z,10.38
2022-08-17T23:01:28.430Z,11.40
2022-08-17T23:04:04.186Z,11.13
2022-08-17T23:09:03.639Z,11.30
2022-08-17T23:11:48.827Z,10.77
2022-08-17T23:14:20.133Z,10.80
2022-08-17T23:16:50.410Z,10.95
2022-08-17T23:19:21.522Z,11.52
2022-08-17T23:21:53.807Z,11.38
2022-08-17T23:24:24.146Z,11.57
2022-08-17T23:26:51.012Z,10.52
2022-08-17T23:29:20.174Z,10.57
2022-08-17T23:31:47.520Z,10.68
2022-08-17T23:34:14.991Z,11.30
2022-08-17T23:36:42.077Z,10.80
2022-08-17T23:39:08.694Z,10.80
2022-08-17T23:41:38.879Z,10.32
2022-08-17T23:46:52.208Z,10.82
2022-08-17T23:49:19.265Z,11.38
2022-08-17T23:51:49.932Z,12.05
2022-08-17T23:54:34.103Z,11.13
2022-08-17T23:57:02.118Z,10.50
2022-08-17T23:59:29.279Z,11.18
